Kinrikimaru — JL6545 — position and weather

sailwx.info

Track history (hours):
 
Tides and Currents Weather Stations Pressure Air Temp Water Temp Dewpoint Dewpoint Depression Visibility Wind Speed Wind Dir Waves Ship Positions

Kinrikimaru

Last reported at 2017-Feb-21 13:08 UTC. Time now 2017-Feb-21 23:28 UTC.
Position N 35°02' E 139°30'.

Length 76 m; draft 4 m.

Type: Cargo ship. MMSI: 431500615.

Date/timePositionNaut miles runAvg speedWind from/ knotsBaromVisibWave heightAir tempDewpointWater temp
2017-Feb-21 13:08N 35°02' E 139°30'712.4
2017-Feb-21 12:33N 35°05' E 139°38'1211.5
2017-Feb-21 11:32N 35°14' E 139°46'1111.0
2017-Feb-21 10:33N 35°25' E 139°44'1312.8
2017-Feb-21 09:32N 35°34' E 139°55'3 0.1
2017-Feb-19 21:25N 35°36' E 139°57'0 0.0
2017-Feb-19 18:18N 35°36' E 139°57'0 0.0
2017-Feb-19 17:30N 35°36' E 139°57'0 0.0
2017-Feb-19 16:33N 35°36' E 139°57'1 0.5
2017-Feb-19 15:33N 35°36' E 139°57'1212.5
2017-Feb-19 14:33N 35°26' E 139°48'1211.0
2017-Feb-19 13:31N 35°14' E 139°47'1212.5
2017-Feb-19 12:33N 35°03' E 139°45'  
2017-Feb-12 23:31N 35°13' E 139°46'1212.1
2017-Feb-12 22:33N 35°24' E 139°43'9 8.8
2017-Feb-12 21:32N 35°22' E 139°53'0 0.0
2017-Feb-12 20:24N 35°22' E 139°53'0 0.0
2017-Feb-12 19:33N 35°22' E 139°53'0 0.0
2017-Feb-12 18:27N 35°22' E 139°53'0 0.0
2017-Feb-12 12:24N 35°22' E 139°53'0 0.0
2017-Feb-12 11:24N 35°22' E 139°53'0 0.0
2017-Feb-12 10:30N 35°22' E 139°53'0 0.0
2017-Feb-12 09:30N 35°22' E 139°53'0 0.0
2017-Feb-12 08:15N 35°22' E 139°53'0 0.0
2017-Feb-12 07:33N 35°22' E 139°53'0 0.0
2017-Feb-12 06:30N 35°22' E 139°53'0 0.0
2017-Feb-12 05:33N 35°22' E 139°53'0 0.0
2017-Feb-12 04:03N 35°22' E 139°53'0 0.0
2017-Feb-12 03:06N 35°22' E 139°53'0 0.0
2017-Feb-12 02:33N 35°22' E 139°53'3 3.2
2017-Feb-12 01:32N 35°24' E 139°50'0 0.0
2017-Feb-12 00:26N 35°24' E 139°50'0 0.0
2017-Feb-11 23:26N 35°24' E 139°50'0 0.0
2017-Feb-11 22:32N 35°24' E 139°50'0 0.0
2017-Feb-11 21:32N 35°24' E 139°50'0 0.0
2017-Feb-11 20:14N 35°24' E 139°50'0 0.0
2017-Feb-11 19:32N 35°24' E 139°50'0 0.0
2017-Feb-11 18:26N 35°24' E 139°50'0 0.0
2017-Feb-11 17:32N 35°24' E 139°50'0 0.0
2017-Feb-11 16:29N 35°24' E 139°50'0 0.0
2017-Feb-11 15:29N 35°24' E 139°50'0 0.0
2017-Feb-11 14:32N 35°24' E 139°50'0 0.0
2017-Feb-11 13:11N 35°24' E 139°50'  
Track history (hours):
 
Tides and Currents Weather Stations Pressure Air Temp Water Temp Dewpoint Dewpoint Depression Visibility Wind Speed Wind Dir Waves Ship Positions

Kinrikimaru

Last reported at 2017-Feb-21 13:08 UTC. Time now 2017-Feb-21 23:28 UTC.
Position N 35°02' E 139°30'.

Length 76 m; draft 4 m.

Type: Cargo ship. MMSI: 431500615.

Date/timePositionNaut miles runAvg speedWind from/ knotsBaromVisibWave heightAir tempDewpointWater temp
2017-Feb-21 13:08N 35°02' E 139°30'712.4
2017-Feb-21 12:33N 35°05' E 139°38'1211.5
2017-Feb-21 11:32N 35°14' E 139°46'1111.0
2017-Feb-21 10:33N 35°25' E 139°44'1312.8
2017-Feb-21 09:32N 35°34' E 139°55'3 0.1
2017-Feb-19 21:25N 35°36' E 139°57'0 0.0
2017-Feb-19 18:18N 35°36' E 139°57'0 0.0
2017-Feb-19 17:30N 35°36' E 139°57'0 0.0
2017-Feb-19 16:33N 35°36' E 139°57'1 0.5
2017-Feb-19 15:33N 35°36' E 139°57'1212.5
2017-Feb-19 14:33N 35°26' E 139°48'1211.0
2017-Feb-19 13:31N 35°14' E 139°47'1212.5
2017-Feb-19 12:33N 35°03' E 139°45'  
2017-Feb-12 23:31N 35°13' E 139°46'1212.1
2017-Feb-12 22:33N 35°24' E 139°43'9 8.8
2017-Feb-12 21:32N 35°22' E 139°53'0 0.0
2017-Feb-12 20:24N 35°22' E 139°53'0 0.0
2017-Feb-12 19:33N 35°22' E 139°53'0 0.0
2017-Feb-12 18:27N 35°22' E 139°53'0 0.0
2017-Feb-12 12:24N 35°22' E 139°53'0 0.0
2017-Feb-12 11:24N 35°22' E 139°53'0 0.0
2017-Feb-12 10:30N 35°22' E 139°53'0 0.0
2017-Feb-12 09:30N 35°22' E 139°53'0 0.0
2017-Feb-12 08:15N 35°22' E 139°53'0 0.0
2017-Feb-12 07:33N 35°22' E 139°53'0 0.0
2017-Feb-12 06:30N 35°22' E 139°53'0 0.0
2017-Feb-12 05:33N 35°22' E 139°53'0 0.0
2017-Feb-12 04:03N 35°22' E 139°53'0 0.0
2017-Feb-12 03:06N 35°22' E 139°53'0 0.0
2017-Feb-12 02:33N 35°22' E 139°53'3 3.2
2017-Feb-12 01:32N 35°24' E 139°50'0 0.0
2017-Feb-12 00:26N 35°24' E 139°50'0 0.0
2017-Feb-11 23:26N 35°24' E 139°50'0 0.0
2017-Feb-11 22:32N 35°24' E 139°50'0 0.0
2017-Feb-11 21:32N 35°24' E 139°50'0 0.0
2017-Feb-11 20:14N 35°24' E 139°50'0 0.0
2017-Feb-11 19:32N 35°24' E 139°50'0 0.0
2017-Feb-11 18:26N 35°24' E 139°50'0 0.0
2017-Feb-11 17:32N 35°24' E 139°50'0 0.0
2017-Feb-11 16:29N 35°24' E 139°50'0 0.0
2017-Feb-11 15:29N 35°24' E 139°50'0 0.0
2017-Feb-11 14:32N 35°24' E 139°50'0 0.0
2017-Feb-11 13:11N 35°24' E 139°50'  

Dump ship's entire track history